Time;durP1;ratioP1;P1;durP2;ratioP2;P2;SDS_P1;SDS_P2;PMS_P1;PMS_P2;Temp;Humidity;BMP_temperature;BMP_pressure;BME280_temperature;BME280_humidity;BME280_pressure;Samples;Min_cycle;Max_cycle;Signal;HPM_P1;HPM_P2
2021/05/06 00:06:24;;;;;;;15.82;4.05;;;;;;;3.86;84.46;99812.91;5093367;28;20039;-62
2021/05/06 00:08:04;;;;;;;;;;;;;;;3.85;84.10;99818.34;5071572;28;20126;-62
2021/05/06 00:32:16;;;;;;;17.08;2.72;;;;;;;3.73;83.41;99823.78;5092760;28;20445;-62
2021/05/06 00:34:42;;;;;;;17.35;3.42;;;;;;;3.69;83.45;99822.38;5074683;28;20040;-62
2021/05/06 00:37:07;;;;;;;20.67;3.23;;;;;;;3.77;82.64;99822.53;5092568;28;20028;-62
2021/05/06 00:39:39;;;;;;;14.37;3.17;;;;;;;3.81;82.96;99815.97;5074645;28;20031;-62
2021/05/06 00:42:13;;;;;;;14.63;3.85;;;;;;;3.86;82.42;99820.00;5092674;28;20058;-62
2021/05/06 00:56:08;;;;;;;21.73;3.88;;;;;;;3.78;82.71;99826.81;5074410;28;20080;-62
2021/05/06 00:58:49;;;;;;;24.65;3.97;;;;;;;3.72;83.61;99835.31;5091880;28;20043;-62
2021/05/06 01:03:57;;;;;;;19.90;5.70;;;;;;;3.73;84.32;99821.13;5074048;28;20469;-62
2021/05/06 01:06:24;;;;;;;13.18;3.67;;;;;;;3.70;84.25;99826.69;5074177;28;20051;-62
2021/05/06 01:09:11;;;;;;;17.90;4.68;;;;;;;3.68;85.11;99826.00;5073963;28;20039;-62
2021/05/06 01:11:44;;;;;;;24.33;3.88;;;;;;;3.74;84.50;99817.50;5074159;28;20032;-62
2021/05/06 01:14:10;;;;;;;17.30;3.03;;;;;;;3.78;83.97;99826.81;5091633;28;20608;-62
2021/05/06 01:16:36;;;;;;;21.25;3.35;;;;;;;3.84;83.53;99814.00;5073988;28;20494;-62
2021/05/06 01:19:03;;;;;;;14.82;4.80;;;;;;;3.81;83.15;99821.25;5091660;28;20044;-62
2021/05/06 01:21:28;;;;;;;;;;;;;;;3.77;83.42;99819.88;5074466;28;20042;-62
2021/05/06 01:23:55;;;;;;;21.48;4.18;;;;;;;3.72;83.37;99818.63;5073955;28;20343;-62
2021/05/06 01:28:56;;;;;;;16.92;3.75;;;;;;;3.66;82.76;99819.19;5073427;28;20119;-62
2021/05/06 01:31:24;;;;;;;19.73;3.40;;;;;;;3.71;82.89;99819.59;5057053;28;20054;-62
2021/05/06 01:34:07;;;;;;;20.63;4.32;;;;;;;3.75;82.98;99823.66;5073686;28;20067;-62
2021/05/06 01:37:00;;;;;;;13.57;2.97;;;;;;;3.88;82.82;99823.31;5074071;28;20028;-62
2021/05/06 01:47:41;;;;;;;12.30;4.70;;;;;;;3.92;81.83;99822.06;5073253;28;20032;-62
2021/05/06 01:50:19;;;;;;;11.57;2.65;;;;;;;3.87;82.17;99835.72;5073698;28;20032;-62
2021/05/06 02:00:41;;;;;;;12.40;3.00;;;;;;;3.75;82.03;99824.47;5091270;28;20061;-62
2021/05/06 02:03:17;;;;;;;18.80;3.38;;;;;;;3.73;81.33;99830.88;5091309;28;20031;-62
2021/05/06 02:05:43;;;;;;;12.02;2.88;;;;;;;3.75;81.34;99837.66;5073430;28;20461;-62
2021/05/06 02:08:09;;;;;;;22.10;4.90;;;;;;;3.70;80.79;99823.22;5090755;28;20032;-62
2021/05/06 02:10:41;;;;;;;10.45;2.42;;;;;;;3.63;81.42;99817.69;5057639;28;20093;-62
2021/05/06 02:13:08;;;;;;;16.27;2.85;;;;;;;3.60;81.30;99831.13;5091040;28;20028;-62
2021/05/06 02:15:38;;;;;;;8.02;2.15;;;;;;;3.57;81.82;99821.69;5073222;28;20036;-62
2021/05/06 02:18:04;;;;;;;13.80;2.70;;;;;;;3.54;81.02;99837.00;5090813;28;20114;-62
2021/05/06 02:20:30;;;;;;;9.60;3.00;;;;;;;3.53;81.91;99830.03;5073344;28;20144;-62
2021/05/06 02:22:56;;;;;;;11.95;3.03;;;;;;;3.54;81.34;99821.97;5090822;28;20028;-62
2021/05/06 02:25:21;;;;;;;14.17;2.53;;;;;;;3.56;81.54;99837.69;5056527;28;20024;-62
2021/05/06 02:27:49;;;;;;;14.68;2.80;;;;;;;3.57;81.29;99818.22;5056447;28;20032;-62
2021/05/06 02:30:16;;;;;;;12.47;2.27;;;;;;;3.63;81.29;99836.16;5090998;28;20510;-62
2021/05/06 02:32:42;;;;;;;11.25;2.55;;;;;;;3.59;81.11;99819.75;5090941;28;20047;-62
2021/05/06 02:35:08;;;;;;;23.77;6.73;;;;;;;3.61;81.38;99859.22;5073117;28;20032;-62
2021/05/06 02:37:33;;;;;;;26.35;3.58;;;;;;;3.57;81.74;99842.81;5090390;28;20040;-62
2021/05/06 02:39:58;;;;;;;17.47;3.70;;;;;;;3.54;82.29;99842.28;5073119;28;20036;-62
2021/05/06 02:42:24;;;;;;;33.90;5.13;;;;;;;3.50;82.29;99846.16;5091386;28;20020;-62
2021/05/06 02:44:49;;;;;;;13.50;3.13;;;;;;;3.46;82.48;99845.59;5094760;28;20036;-62
2021/05/06 02:47:15;;;;;;;25.17;3.13;;;;;;;3.41;82.23;99844.34;5094822;28;20047;-62
2021/05/06 02:49:45;;;;;;;16.63;3.60;;;;;;;3.34;82.41;99844.06;5076649;28;20142;-62
2021/05/06 02:52:16;;;;;;;16.65;2.75;;;;;;;3.32;82.97;99838.91;5094565;28;20564;-62
2021/05/06 02:54:45;;;;;;;19.45;5.55;;;;;;;3.26;82.38;99841.28;5076617;28;20393;-62
2021/05/06 02:57:38;;;;;;;12.93;3.08;;;;;;;3.27;82.80;99841.13;5076639;28;20093;-62
2021/05/06 03:02:50;;;;;;;15.75;2.80;;;;;;;3.44;81.79;99841.41;5076587;28;20027;-62
2021/05/06 03:05:18;;;;;;;9.90;2.47;;;;;;;3.47;80.95;99846.44;5094509;28;20044;-62
2021/05/06 03:07:50;;;;;;;15.23;3.15;;;;;;;3.42;81.91;99840.72;5094108;28;20154;-62
2021/05/06 03:21:08;;;;;;;21.58;4.05;;;;;;;3.38;82.58;99843.66;5094214;28;20044;-61
2021/05/06 03:23:33;;;;;;;21.40;3.75;;;;;;;3.31;83.12;99842.53;5094060;28;20043;-61
2021/05/06 03:25:59;;;;;;;11.20;2.53;;;;;;;3.38;83.15;99840.19;5094017;28;20055;-61
2021/05/06 03:28:27;;;;;;;21.25;3.03;;;;;;;3.36;83.28;99840.31;5093696;28;20036;-61
2021/05/06 03:41:33;;;;;;;15.52;3.30;;;;;;;3.40;83.32;99850.59;5093795;28;20437;-61
2021/05/06 04:17:00;;;;;;;15.07;4.75;;;;;;;3.54;84.75;99864.22;5075197;28;20372;-62
2021/05/06 04:27:12;;;;;;;16.00;3.42;;;;;;;3.71;85.46;99896.16;5075159;28;20427;-63
2021/05/06 04:37:33;;;;;;;12.32;3.10;;;;;;;3.25;87.24;99885.28;5092548;28;20123;-63
2021/05/06 04:40:03;;;;;;;22.37;5.37;;;;;;;3.27;88.03;99898.34;5058165;28;20131;-63
2021/05/06 04:43:12;;;;;;;11.43;3.20;;;;;;;3.21;87.78;99897.09;5074702;28;20036;-62
2021/05/06 04:46:09;;;;;;;15.40;3.38;;;;;;;3.05;88.01;99891.50;5074589;28;20101;-62
2021/05/06 05:03:10;;;;;;;20.23;5.10;;;;;;;3.19;89.15;99896.41;5072490;28;20039;-63
2021/05/06 05:04:46;;;;;;;18.17;4.93;;;;;;;3.26;89.27;99901.97;5090295;28;20794;-63
2021/05/06 05:07:20;;;;;;;;;;;;;;;3.25;88.80;99895.84;5073416;28;20046;-63
2021/05/06 05:09:57;;;;;;;18.98;3.72;;;;;;;3.23;88.56;99896.94;5073988;28;20412;-63
2021/05/06 05:12:54;;;;;;;21.58;4.65;;;;;;;3.31;88.10;99899.75;5057436;28;20024;-63
2021/05/06 05:18:18;;;;;;;15.88;4.82;;;;;;;3.30;88.47;99890.16;5091654;28;20458;-63
2021/05/06 05:21:01;;;;;;;18.25;4.35;;;;;;;3.38;87.95;99901.69;5074130;28;20407;-63
2021/05/06 05:26:00;;;;;;;21.33;4.17;;;;;;;3.21;86.23;99894.47;5073674;28;20131;-63
2021/05/06 05:28:25;;;;;;;31.27;4.90;;;;;;;3.28;85.80;99900.84;5073018;28;20039;-63
2021/05/06 05:30:51;;;;;;;16.47;3.47;;;;;;;3.29;86.13;99897.25;5091289;28;20361;-63
2021/05/06 05:33:19;;;;;;;15.85;3.28;;;;;;;3.30;85.94;99887.50;5091674;28;20076;-63
2021/05/06 05:39:07;;;;;;;14.95;3.65;;;;;;;3.35;85.27;99896.69;5040044;28;20071;-62
2021/05/06 05:55:11;;;;;;;20.92;5.10;;;;;;;3.47;85.14;99921.16;5073533;28;20036;-63
2021/05/06 05:57:37;;;;;;;23.13;4.90;;;;;;;3.60;85.93;99926.16;5073333;28;20051;-63
2021/05/06 06:00:04;;;;;;;20.67;5.27;;;;;;;3.53;85.51;99928.50;5056982;28;20058;-63
2021/05/06 06:02:30;;;;;;;18.55;4.40;;;;;;;3.57;86.57;99918.53;5073798;28;20284;-63
2021/05/06 06:04:56;;;;;;;11.85;3.28;;;;;;;3.44;86.14;99924.09;5073642;28;20114;-63
2021/05/06 06:07:21;;;;;;;22.33;4.00;;;;;;;3.43;85.76;99927.69;5073449;28;20474;-63
2021/05/06 06:09:46;;;;;;;23.83;4.80;;;;;;;3.52;86.53;99933.94;5073410;28;20046;-62
2021/05/06 06:12:12;;;;;;;22.57;3.80;;;;;;;3.44;87.34;99931.13;5073317;28;20062;-63
2021/05/06 06:14:45;;;;;;;23.77;4.00;;;;;;;3.48;87.25;99937.81;5073379;28;20394;-63
2021/05/06 06:17:11;;;;;;;18.27;3.63;;;;;;;3.57;87.83;99932.56;5091342;28;20042;-63
2021/05/06 06:19:37;;;;;;;13.82;3.67;;;;;;;3.75;87.90;99931.88;5060732;28;20106;-62
2021/05/06 06:22:07;;;;;;;14.23;3.53;;;;;;;3.93;87.17;99934.66;5077661;28;20036;-62
2021/05/06 06:24:32;;;;;;;20.52;4.38;;;;;;;4.06;86.21;99926.47;5077395;28;20507;-62
2021/05/06 06:26:57;;;;;;;16.37;3.73;;;;;;;4.13;85.95;99923.09;5095364;28;20028;-62
2021/05/06 06:29:29;;;;;;;18.53;6.80;;;;;;;4.26;85.73;99928.09;5077146;28;20040;-62
2021/05/06 06:31:55;;;;;;;21.33;4.70;;;;;;;4.38;84.13;99913.75;5077408;28;20036;-62
2021/05/06 06:34:20;;;;;;;22.87;3.87;;;;;;;4.41;83.09;99909.97;5077265;28;20119;-62
2021/05/06 06:36:46;;;;;;;11.13;3.13;;;;;;;4.48;83.02;99920.81;5095157;28;20054;-62
2021/05/06 06:39:14;;;;;;;17.50;3.35;;;;;;;4.42;82.77;99909.00;5094616;28;20111;-62
2021/05/06 06:41:40;;;;;;;17.48;3.92;;;;;;;4.77;83.11;99921.53;5095059;28;20449;-62
2021/05/06 06:44:06;;;;;;;14.98;3.30;;;;;;;5.20;81.45;99916.63;5077017;28;20104;-63
2021/05/06 06:46:31;;;;;;;19.83;3.58;;;;;;;5.63;80.16;99915.91;5060784;28;20044;-62
2021/05/06 06:49:01;;;;;;;19.02;3.63;;;;;;;5.92;77.80;99907.75;5094727;28;20054;-62
2021/05/06 06:51:26;;;;;;;9.52;2.63;;;;;;;6.19;76.38;99911.28;5094852;28;20042;-63
2021/05/06 06:53:51;;;;;;;16.33;2.70;;;;;;;6.60;75.35;99914.19;5076809;28;20378;-63
2021/05/06 06:56:17;;;;;;;23.13;4.57;;;;;;;7.06;74.44;99904.13;5094777;28;20042;-63
2021/05/06 06:58:45;;;;;;;17.85;3.03;;;;;;;7.85;71.85;99915.28;5094495;28;20103;-63
2021/05/06 07:01:11;;;;;;;19.80;2.88;;;;;;;7.49;71.90;99912.91;5094696;28;20035;-63
2021/05/06 07:03:36;;;;;;;10.77;2.57;;;;;;;7.58;72.16;99908.41;5094704;28;20492;-63
2021/05/06 07:06:02;;;;;;;11.63;2.67;;;;;;;7.31;72.25;99913.00;5094519;28;20374;-63
2021/05/06 07:08:32;;;;;;;14.13;4.05;;;;;;;7.08;73.61;99899.50;5076289;28;20047;-63
2021/05/06 07:10:59;;;;;;;11.07;3.20;;;;;;;6.11;73.83;99911.22;5076501;28;20043;-63
2021/05/06 07:13:26;;;;;;;26.52;3.30;;;;;;;6.08;73.71;99911.53;5076572;28;20177;-63
2021/05/06 07:15:56;;;;;;;20.95;3.83;;;;;;;5.95;75.71;99905.78;5076544;28;20043;-63
2021/05/06 07:18:21;;;;;;;12.90;2.65;;;;;;;5.76;76.41;99917.34;5076196;28;20042;-63
2021/05/06 07:20:48;;;;;;;19.50;4.90;;;;;;;5.92;76.92;99915.69;5094222;28;20028;-63
2021/05/06 07:23:17;;;;;;;19.42;4.57;;;;;;;6.12;75.12;99920.84;5094196;28;20044;-63
2021/05/06 07:25:43;;;;;;;22.88;3.25;;;;;;;6.51;76.18;99909.84;5094241;28;20032;-63
2021/05/06 07:28:10;;;;;;;14.15;3.35;;;;;;;6.54;75.27;99913.00;5093421;28;20040;-63
2021/05/06 07:30:35;;;;;;;;;;;;;;;6.40;75.09;99912.75;5076739;28;20040;-63
2021/05/06 07:33:00;;;;;;;;;;;;;;;6.32;75.28;99924.13;5094611;28;19942;-63
2021/05/06 07:35:26;;;;;;;11.33;2.87;;;;;;;6.34;75.80;99922.16;5076029;28;20014;-63
2021/05/06 07:37:51;;;;;;;21.77;3.77;;;;;;;6.52;74.83;99930.06;5093727;28;20039;-63
2021/05/06 07:40:16;;;;;;;17.80;3.40;;;;;;;6.54;73.04;99922.78;5093893;28;20109;-63
2021/05/06 07:42:42;;;;;;;19.33;3.57;;;;;;;6.50;73.17;99916.13;5076096;28;20042;-63
2021/05/06 07:45:08;;;;;;;29.17;4.70;;;;;;;6.53;72.87;99929.91;5075997;28;20063;-63
2021/05/06 07:47:33;;;;;;;17.25;2.50;;;;;;;7.10;73.38;99929.38;5093486;28;20134;-63
2021/05/06 07:49:58;;;;;;;17.73;3.77;;;;;;;7.03;71.17;99927.53;5093612;28;20051;-63
2021/05/06 07:52:26;;;;;;;16.13;3.00;;;;;;;6.76;71.35;99930.19;5093649;28;20040;-63
2021/05/06 07:54:51;;;;;;;13.60;4.07;;;;;;;7.27;72.67;99940.06;5093592;28;20047;-63
2021/05/06 07:57:17;;;;;;;25.47;3.17;;;;;;;7.63;68.92;99924.69;5093613;28;20469;-63
2021/05/06 07:59:43;;;;;;;10.93;2.30;;;;;;;7.68;65.18;99941.00;5093283;28;20415;-63
2021/05/06 08:02:10;;;;;;;8.27;2.20;;;;;;;7.93;62.00;99941.84;5093602;28;20040;-63
2021/05/06 08:04:35;;;;;;;15.57;3.28;;;;;;;8.27;65.65;99943.53;5093338;28;20028;-63
2021/05/06 08:07:01;;;;;;;10.77;2.67;;;;;;;8.32;63.47;99951.00;5075557;28;20085;-63
2021/05/06 08:09:26;;;;;;;9.77;2.63;;;;;;;8.74;62.85;99949.97;5058661;28;20032;-63
2021/05/06 08:11:56;;;;;;;10.33;2.33;;;;;;;8.98;65.50;99949.06;5075505;28;20471;-63
2021/05/06 08:14:22;;;;;;;19.80;2.55;;;;;;;8.97;61.72;99953.56;5093089;28;20043;-63
2021/05/06 08:16:47;;;;;;;9.90;2.83;;;;;;;9.14;61.85;99954.34;5075459;28;20032;-63
2021/05/06 08:19:12;;;;;;;7.13;1.70;;;;;;;9.57;62.32;99941.47;5092739;28;20056;-63
2021/05/06 08:21:37;;;;;;;7.90;1.33;;;;;;;9.16;60.51;99955.00;5093163;28;20062;-63
2021/05/06 08:24:04;;;;;;;11.70;2.47;;;;;;;9.57;59.67;99951.28;5075269;28;20365;-63
2021/05/06 08:26:31;;;;;;;8.77;2.22;;;;;;;9.62;58.26;99952.44;5075272;28;20369;-63
2021/05/06 08:28:57;;;;;;;17.08;2.83;;;;;;;9.87;59.87;99952.28;5092656;28;20027;-63
2021/05/06 08:31:22;;;;;;;7.53;1.97;;;;;;;9.59;57.02;99960.78;5075187;28;20028;-63
2021/05/06 08:33:47;;;;;;;13.20;2.30;;;;;;;9.73;57.22;99956.53;5092597;28;20727;-63
2021/05/06 08:36:13;;;;;;;12.33;3.93;;;;;;;9.97;57.09;99957.38;5092865;28;20050;-63
2021/05/06 08:38:38;;;;;;;9.87;2.60;;;;;;;10.09;55.34;99963.94;5074727;28;20181;-63
2021/05/06 08:41:05;;;;;;;12.93;2.47;;;;;;;10.33;56.07;99961.13;5057439;28;20024;-63
2021/05/06 08:43:33;;;;;;;9.65;3.38;;;;;;;9.71;56.98;99972.69;5058090;28;20417;-63
2021/05/06 08:45:59;;;;;;;10.52;2.72;;;;;;;9.42;56.59;99981.34;5058225;28;20181;-63
2021/05/06 08:48:24;;;;;;;14.23;2.70;;;;;;;9.21;55.90;99973.94;5092075;28;20130;-63
2021/05/06 08:50:50;;;;;;;9.95;2.80;;;;;;;9.50;56.46;99976.00;5092548;28;20036;-63
2021/05/06 08:53:17;;;;;;;8.77;2.10;;;;;;;9.56;57.05;99970.97;5074639;28;20027;-63
2021/05/06 08:55:44;;;;;;;10.52;1.92;;;;;;;10.12;55.11;99967.09;5092312;28;20040;-63
2021/05/06 08:58:09;;;;;;;13.07;2.70;;;;;;;9.97;55.47;99970.72;5074350;28;20042;-63
2021/05/06 09:00:34;;;;;;;9.77;3.93;;;;;;;9.35;54.49;99979.56;5092265;28;20035;-63
2021/05/06 09:03:00;;;;;;;9.10;2.50;;;;;;;10.01;51.80;99977.34;5057472;28;20385;-63
2021/05/06 09:05:25;;;;;;;9.20;2.33;;;;;;;10.29;51.69;99983.00;5091996;28;20032;-63
2021/05/06 09:07:51;;;;;;;11.17;3.53;;;;;;;9.84;51.01;99985.47;5091692;28;20093;-63
2021/05/06 09:10:34;;;;;;;14.93;4.57;;;;;;;9.78;52.80;99990.66;5091885;28;20039;-63
2021/05/06 09:13:00;;;;;;;8.55;2.50;;;;;;;9.43;53.83;99992.84;5091988;28;20051;-63
2021/05/06 09:15:26;;;;;;;12.40;3.65;;;;;;;9.58;55.35;99995.63;5073812;28;20043;-63
2021/05/06 09:17:53;;;;;;;8.35;2.60;;;;;;;9.80;53.25;99991.31;5091518;28;20082;-63
2021/05/06 09:20:24;;;;;;;11.82;2.90;;;;;;;9.82;54.88;99994.63;5073994;28;20032;-63
2021/05/06 09:23:00;;;;;;;12.30;2.53;;;;;;;9.84;53.51;99990.78;5074097;28;20051;-64
2021/05/06 09:25:33;;;;;;;12.50;2.53;;;;;;;10.04;52.84;99985.81;5091846;28;20028;-63
2021/05/06 09:28:02;;;;;;;11.48;2.60;;;;;;;9.60;51.87;100010.44;5091346;28;20059;-63
2021/05/06 09:30:27;;;;;;;16.42;3.08;;;;;;;10.03;53.21;99997.50;5057050;28;20044;-63
2021/05/06 09:32:59;;;;;;;14.03;2.60;;;;;;;9.90;53.10;100006.09;5074001;28;20043;-64
2021/05/06 09:35:26;;;;;;;10.85;2.60;;;;;;;9.34;53.71;100028.50;5073784;28;20286;-63
2021/05/06 09:37:51;;;;;;;14.38;2.15;;;;;;;7.50;62.84;100063.31;5073362;28;20032;-63
2021/05/06 09:40:17;;;;;;;8.93;2.73;;;;;;;6.36;68.44;100062.53;5073588;28;20092;-63
2021/05/06 09:42:45;;;;;;;7.75;1.65;;;;;;;5.83;70.81;100064.09;5091545;28;20034;-63
2021/05/06 09:45:23;;;;;;;6.60;1.98;;;;;;;5.92;70.85;100074.66;5054177;28;20075;-63
2021/05/06 09:48:11;;;;;;;6.63;1.30;;;;;;;6.21;71.99;100078.13;5073390;28;20032;-63
2021/05/06 09:50:38;;;;;;;4.57;1.20;;;;;;;6.30;70.36;100072.75;5056860;28;20093;-64
2021/05/06 09:53:12;;;;;;;7.88;1.38;;;;;;;6.30;70.96;100059.50;5090913;28;20052;-63
2021/05/06 09:55:38;;;;;;;10.02;3.58;;;;;;;6.54;70.01;100056.22;5073230;28;20032;-63
2021/05/06 09:58:13;;;;;;;11.23;2.53;;;;;;;6.84;68.47;100055.97;5090949;28;20089;-63
2021/05/06 10:00:39;;;;;;;10.82;2.30;;;;;;;8.06;65.10;100042.38;5091121;28;20043;-63
2021/05/06 10:03:15;;;;;;;7.07;3.00;;;;;;;9.57;62.73;100041.91;5091109;28;20385;-63
2021/05/06 10:05:41;;;;;;;;;;;;;;;9.69;61.05;100041.38;5091491;28;20036;-63
2021/05/06 10:08:06;;;;;;;;;;;;;;;9.70;59.68;100037.69;5091118;28;19922;-63
2021/05/06 10:10:34;;;;;;;6.20;2.10;;;;;;;10.65;58.93;100043.75;5064885;28;19912;-64
2021/05/06 10:13:01;;;;;;;9.55;2.42;;;;;;;11.36;56.80;100033.53;5073303;28;20040;-63
2021/05/06 10:15:28;;;;;;;10.68;2.33;;;;;;;12.44;50.49;100031.91;5091053;28;20358;-63
2021/05/06 10:17:55;;;;;;;11.93;2.67;;;;;;;11.75;50.51;100038.56;5072834;28;20476;-63
2021/05/06 10:20:24;;;;;;;10.80;2.78;;;;;;;11.84;51.72;100039.25;5091029;28;20075;-63
2021/05/06 10:22:50;;;;;;;12.00;2.13;;;;;;;12.61;51.29;100033.28;5073403;28;20040;-63
2021/05/06 10:25:16;;;;;;;12.70;3.58;;;;;;;13.43;52.28;100030.97;5073415;28;20058;-63
2021/05/06 10:27:42;;;;;;;13.18;3.15;;;;;;;13.59;50.78;100030.66;5073063;28;20036;-64
2021/05/06 10:30:07;;;;;;;10.95;2.42;;;;;;;12.39;49.16;100037.00;5090930;28;20089;-63
2021/05/06 10:32:35;;;;;;;14.13;2.67;;;;;;;11.85;50.63;100035.59;5072946;28;20040;-63
2021/05/06 10:35:13;;;;;;;10.57;1.50;;;;;;;10.81;50.81;100050.78;5073096;28;20089;-63
2021/05/06 10:37:42;;;;;;;15.02;2.53;;;;;;;10.18;53.92;100039.41;5090475;28;20067;-63
2021/05/06 10:40:25;;;;;;;8.70;2.78;;;;;;;10.84;51.13;100061.94;5090858;28;20035;-63
2021/05/06 10:42:52;;;;;;;10.57;2.60;;;;;;;11.66;49.45;100060.22;5072977;28;20380;-63
2021/05/06 10:45:17;;;;;;;12.02;2.28;;;;;;;12.35;48.74;100049.09;5090798;28;20024;-63
2021/05/06 10:47:42;;;;;;;8.47;1.87;;;;;;;13.24;47.04;100060.13;5090461;28;20417;-63
2021/05/06 10:50:15;;;;;;;9.00;2.50;;;;;;;13.13;45.19;100062.50;5072945;28;20032;-63
2021/05/06 10:52:45;;;;;;;8.55;2.25;;;;;;;13.09;47.62;100060.25;5072967;28;20055;-63
2021/05/06 10:55:13;;;;;;;7.32;1.77;;;;;;;11.37;44.92;100052.03;5072896;28;20032;-63
2021/05/06 10:57:40;;;;;;;6.28;1.88;;;;;;;10.69;49.20;100075.25;5090249;28;20032;-63
2021/05/06 11:00:20;;;;;;;8.55;2.40;;;;;;;10.67;50.50;100079.09;5072836;28;20123;-63
2021/05/06 11:02:48;;;;;;;6.68;1.83;;;;;;;11.09;51.94;100080.41;5072792;28;20450;-63
2021/05/06 11:05:18;;;;;;;8.52;1.92;;;;;;;12.07;46.85;100063.22;5093998;28;20458;-63
2021/05/06 11:08:04;;;;;;;9.90;2.42;;;;;;;12.63;49.24;100068.72;5093934;28;20057;-63
2021/05/06 11:10:52;;;;;;;9.98;3.38;;;;;;;13.25;44.56;100071.66;5076324;28;20146;-63
2021/05/06 11:13:21;;;;;;;7.18;1.65;;;;;;;14.32;46.12;100060.38;5076475;28;20158;-63
2021/05/06 11:15:47;;;;;;;8.13;2.03;;;;;;;13.93;44.00;100063.81;5094212;28;20514;-63
2021/05/06 11:18:39;;;;;;;5.43;1.40;;;;;;;13.13;42.17;100062.50;5093959;28;20035;-63
2021/05/06 11:21:05;;;;;;;4.22;1.70;;;;;;;13.34;40.32;100065.16;5094189;28;20040;-63
2021/05/06 11:23:33;;;;;;;7.78;2.10;;;;;;;12.94;41.34;100064.84;5094108;28;20113;-63
2021/05/06 11:26:07;;;;;;;5.32;1.90;;;;;;;12.56;41.19;100067.84;5094028;28;20028;-63
2021/05/06 11:28:38;;;;;;;6.82;1.60;;;;;;;11.56;44.66;100081.91;5093774;28;20123;-63
2021/05/06 11:31:03;;;;;;;11.88;2.83;;;;;;;9.52;54.79;100087.72;5059381;28;20426;-63
2021/05/06 11:33:29;;;;;;;7.10;1.30;;;;;;;8.55;57.89;100105.50;5094051;28;20032;-63
2021/05/06 11:36:10;;;;;;;9.38;1.73;;;;;;;7.87;58.01;100101.97;5093771;28;20040;-63
2021/05/06 11:38:36;;;;;;;7.75;2.10;;;;;;;7.91;58.68;100118.41;5093545;28;20040;-63
2021/05/06 11:41:02;;;;;;;11.10;2.20;;;;;;;8.54;60.68;100104.63;5076057;28;20035;-63
2021/05/06 11:43:28;;;;;;;9.48;2.25;;;;;;;9.37;56.99;100095.59;5093523;28;20032;-63
2021/05/06 11:46:04;;;;;;;6.55;1.60;;;;;;;11.17;54.73;100080.34;5093614;28;20330;-63
2021/05/06 11:48:33;;;;;;;6.13;2.10;;;;;;;11.78;44.67;100070.28;5075658;28;20113;-63
2021/05/06 11:50:58;;;;;;;4.97;1.60;;;;;;;12.38;48.41;100075.47;5075682;28;20028;-63
2021/05/06 11:53:24;;;;;;;8.97;2.17;;;;;;;12.51;45.58;100078.31;5093437;28;20043;-64
2021/05/06 11:55:49;;;;;;;8.83;1.47;;;;;;;12.59;45.23;100067.44;5075442;28;20101;-64
2021/05/06 11:58:28;;;;;;;8.27;1.50;;;;;;;13.38;45.02;100077.16;5093100;28;20047;-64
2021/05/06 12:00:54;;;;;;;8.30;1.65;;;;;;;12.65;44.31;100072.03;5075530;28;20278;-64
2021/05/06 12:03:20;;;;;;;9.95;2.20;;;;;;;12.97;45.63;100077.03;5093549;28;20066;-64
2021/05/06 12:06:06;;;;;;;9.98;2.45;;;;;;;13.78;43.79;100066.63;5093394;28;20020;-64
2021/05/06 12:08:43;;;;;;;6.88;1.67;;;;;;;13.30;43.48;100074.63;5092611;28;20032;-64
2021/05/06 12:11:10;;;;;;;5.75;1.80;;;;;;;14.00;43.80;100072.72;5093284;28;20047;-71
2021/05/06 12:13:36;;;;;;;8.00;1.60;;;;;;;13.56;40.69;100073.13;5075365;28;20119;-71
2021/05/06 12:16:15;;;;;;;5.47;1.40;;;;;;;13.58;40.52;100076.44;5093182;28;20035;-71
2021/05/06 12:18:53;;;;;;;7.55;1.38;;;;;;;14.12;40.64;100073.78;5092789;28;20381;-72
2021/05/06 12:21:19;;;;;;;6.65;1.35;;;;;;;13.27;37.13;100070.50;5075496;28;20119;-71
2021/05/06 12:23:48;;;;;;;4.90;1.60;;;;;;;13.89;38.67;100068.75;5093164;28;20563;-71
2021/05/06 12:26:17;;;;;;;5.30;1.40;;;;;;;13.68;38.53;100074.22;5093112;28;20031;-72
2021/05/06 12:28:42;;;;;;;9.18;2.47;;;;;;;12.31;40.79;100083.44;5092626;28;20120;-71
2021/05/06 12:31:08;;;;;;;6.90;1.80;;;;;;;11.24;44.03;100083.94;5075078;28;20453;-71
2021/05/06 12:33:33;;;;;;;3.70;1.23;;;;;;;10.46;42.41;100090.44;5092750;28;20031;-71
2021/05/06 12:35:59;;;;;;;3.00;1.30;;;;;;;10.22;44.89;100086.91;5074958;28;20104;-71
2021/05/06 12:38:25;;;;;;;6.88;1.33;;;;;;;10.84;42.61;100079.78;5074443;28;20043;-71
2021/05/06 12:40:52;;;;;;;3.65;1.27;;;;;;;11.69;41.04;100073.25;5074894;28;20036;-71
2021/05/06 12:43:32;;;;;;;8.35;1.52;;;;;;;12.80;40.88;100087.22;5074723;28;20148;-71
2021/05/06 12:46:01;;;;;;;5.75;1.45;;;;;;;13.05;41.98;100091.13;5092453;28;20127;-71
2021/05/06 12:48:35;;;;;;;12.10;2.05;;;;;;;14.42;40.19;100088.72;5074229;28;20073;-71
2021/05/06 12:51:05;;;;;;;8.13;1.80;;;;;;;14.10;38.46;100085.75;5074701;28;20122;-71
2021/05/06 12:53:30;;;;;;;3.97;1.65;;;;;;;12.65;41.11;100081.94;5092299;28;20488;-71
2021/05/06 12:55:56;;;;;;;4.97;1.27;;;;;;;13.13;41.98;100095.50;5074532;28;20032;-71
2021/05/06 12:58:27;;;;;;;3.50;1.50;;;;;;;12.90;39.57;100079.69;5091995;28;20278;-71
2021/05/06 13:00:53;;;;;;;4.00;1.38;;;;;;;13.43;40.36;100085.44;5074593;28;20036;-71
2021/05/06 13:03:25;;;;;;;7.87;1.57;;;;;;;12.74;42.36;100088.81;5092274;28;20128;-71
2021/05/06 13:05:51;;;;;;;6.18;2.25;;;;;;;13.17;43.03;100086.06;5074382;28;20030;-71
2021/05/06 13:08:17;;;;;;;5.87;1.53;;;;;;;13.18;40.74;100079.69;5091879;28;20043;-71
2021/05/06 13:10:45;;;;;;;15.70;2.50;;;;;;;13.76;42.04;100082.09;5073965;28;20119;-71
2021/05/06 13:13:31;;;;;;;10.32;2.10;;;;;;;14.19;39.23;100078.31;5092003;28;20040;-71
2021/05/06 13:15:56;;;;;;;5.47;2.13;;;;;;;14.42;35.01;100073.44;5091774;28;20050;-71
2021/05/06 13:18:22;;;;;;;9.30;1.47;;;;;;;14.70;37.12;100059.88;5073658;28;20477;-71
2021/05/06 13:20:48;;;;;;;5.33;1.33;;;;;;;14.86;38.41;100081.97;5074022;28;20381;-71
2021/05/06 13:23:29;;;;;;;4.68;1.50;;;;;;;15.13;36.61;100072.88;5073871;28;20051;-71
2021/05/06 13:26:03;;;;;;;7.13;1.48;;;;;;;14.41;35.54;100087.06;5091636;28;20036;-72
2021/05/06 13:28:28;;;;;;;5.50;1.60;;;;;;;13.63;40.49;100087.41;5073602;28;20032;-71
2021/05/06 13:31:12;;;;;;;4.13;1.40;;;;;;;13.64;37.46;100081.00;5073891;28;20134;-71
2021/05/06 13:33:40;;;;;;;4.43;1.67;;;;;;;12.94;34.89;100074.75;5091686;28;20479;-71
2021/05/06 13:36:10;;;;;;;4.45;2.00;;;;;;;12.75;35.76;100082.44;5091654;28;20544;-71
2021/05/06 13:38:55;;;;;;;7.22;1.27;;;;;;;13.90;34.96;100081.13;5056432;28;20036;-71
2021/05/06 13:41:30;;;;;;;5.83;1.20;;;;;;;14.55;34.53;100083.41;5073610;28;20046;-71
2021/05/06 13:43:57;;;;;;;7.13;1.40;;;;;;;13.99;34.22;100084.47;5091302;28;20032;-71
2021/05/06 13:46:25;;;;;;;5.60;1.13;;;;;;;14.60;33.88;100077.41;5073631;28;20071;-71
2021/05/06 13:48:52;;;;;;;6.28;1.45;;;;;;;14.55;33.82;100072.66;5073252;28;20161;-71
2021/05/06 13:51:18;;;;;;;7.45;1.35;;;;;;;14.31;33.25;100092.81;5091361;28;20127;-71
2021/05/06 13:53:47;;;;;;;6.50;1.13;;;;;;;14.64;34.07;100084.84;5073542;28;20429;-71
2021/05/06 13:56:13;;;;;;;5.30;1.40;;;;;;;14.71;31.19;100088.38;5073376;28;20054;-71
2021/05/06 13:58:38;;;;;;;4.95;2.17;;;;;;;15.29;33.95;100087.75;5090791;28;20110;-72
2021/05/06 14:01:05;;;;;;;4.95;1.38;;;;;;;14.98;32.21;100091.06;5073647;28;20797;-71
2021/05/06 14:03:31;;;;;;;3.65;1.27;;;;;;;15.02;34.39;100078.03;5073457;28;20035;-71
2021/05/06 14:05:57;;;;;;;7.80;1.73;;;;;;;14.63;34.99;100080.50;5073717;28;20030;-71
2021/05/06 14:08:22;;;;;;;5.83;1.40;;;;;;;14.92;32.58;100081.97;5073224;28;20321;-72
2021/05/06 14:10:48;;;;;;;6.83;1.30;;;;;;;15.57;31.59;100092.03;5073288;28;20289;-71
2021/05/06 14:13:16;;;;;;;5.00;1.27;;;;;;;14.54;33.89;100087.94;5073234;28;20036;-71
2021/05/06 14:15:41;;;;;;;8.10;1.48;;;;;;;14.81;34.21;100098.72;5073374;28;20468;-72
2021/05/06 14:18:07;;;;;;;10.07;1.60;;;;;;;13.81;37.14;100100.28;5090925;28;20028;-71
2021/05/06 14:20:33;;;;;;;5.37;1.17;;;;;;;14.20;35.24;100096.91;5073427;28;20047;-71
2021/05/06 14:22:59;;;;;;;3.25;2.20;;;;;;;13.10;36.58;100099.41;5073260;28;20036;-71
2021/05/06 14:25:24;;;;;;;5.65;1.35;;;;;;;13.41;35.73;100102.72;5073323;28;20729;-72
2021/05/06 14:27:50;;;;;;;6.10;1.10;;;;;;;12.84;35.34;100093.84;5073050;28;20036;-71